sensor_id;sensor_type;location;lat;lon;timestamp;temperature;humidity
68766;DHT22;55756;45.582;11.484;2022-09-09T00:10:00;22.80;76.50
68766;DHT22;55756;45.582;11.484;2022-09-09T00:20:50;22.80;76.50
68766;DHT22;55756;45.582;11.484;2022-09-09T00:23:35;22.70;76.50
68766;DHT22;55756;45.582;11.484;2022-09-09T00:28:29;22.70;77.00
68766;DHT22;55756;45.582;11.484;2022-09-09T00:31:14;22.60;77.00
68766;DHT22;55756;45.582;11.484;2022-09-09T00:33:42;22.60;77.00
68766;DHT22;55756;45.582;11.484;2022-09-09T00:36:18;22.60;77.10
68766;DHT22;55756;45.582;11.484;2022-09-09T00:38:57;22.60;77.10
68766;DHT22;55756;45.582;11.484;2022-09-09T00:49:34;22.60;76.90
68766;DHT22;55756;45.582;11.484;2022-09-09T00:57:36;22.60;76.50
68766;DHT22;55756;45.582;11.484;2022-09-09T01:00:23;22.60;76.40
68766;DHT22;55756;45.582;11.484;2022-09-09T01:06:01;22.70;75.60
68766;DHT22;55756;45.582;11.484;2022-09-09T01:11:00;22.40;76.10
68766;DHT22;55756;45.582;11.484;2022-09-09T01:13:33;22.40;76.30
68766;DHT22;55756;45.582;11.484;2022-09-09T01:16:08;22.40;76.40
68766;DHT22;55756;45.582;11.484;2022-09-09T01:18:56;22.50;76.30
68766;DHT22;55756;45.582;11.484;2022-09-09T01:21:42;22.40;76.30
68766;DHT22;55756;45.582;11.484;2022-09-09T01:27:04;22.20;76.60
68766;DHT22;55756;45.582;11.484;2022-09-09T01:29:31;22.00;77.40
68766;DHT22;55756;45.582;11.484;2022-09-09T01:31:59;22.00;77.50
68766;DHT22;55756;45.582;11.484;2022-09-09T01:34:29;22.10;77.40
68766;DHT22;55756;45.582;11.484;2022-09-09T01:36:57;22.10;77.00
68766;DHT22;55756;45.582;11.484;2022-09-09T01:39:26;22.10;76.80
68766;DHT22;55756;45.582;11.484;2022-09-09T01:42:00;22.10;76.50
68766;DHT22;55756;45.582;11.484;2022-09-09T01:44:28;22.10;76.00
68766;DHT22;55756;45.582;11.484;2022-09-09T01:46:55;22.20;76.00
68766;DHT22;55756;45.582;11.484;2022-09-09T01:49:21;22.20;75.90
68766;DHT22;55756;45.582;11.484;2022-09-09T01:51:51;22.30;75.70
68766;DHT22;55756;45.582;11.484;2022-09-09T01:54:24;22.30;75.50
68766;DHT22;55756;45.582;11.484;2022-09-09T02:05:27;22.40;75.50
68766;DHT22;55756;45.582;11.484;2022-09-09T02:08:20;22.30;75.10
68766;DHT22;55756;45.582;11.484;2022-09-09T02:11:16;22.20;75.10
68766;DHT22;55756;45.582;11.484;2022-09-09T02:13:48;22.20;75.30
68766;DHT22;55756;45.582;11.484;2022-09-09T02:16:24;22.20;75.10
68766;DHT22;55756;45.582;11.484;2022-09-09T02:21:32;22.30;74.60
68766;DHT22;55756;45.582;11.484;2022-09-09T02:24:04;22.30;74.50
68766;DHT22;55756;45.582;11.484;2022-09-09T02:26:34;22.30;74.30
68766;DHT22;55756;45.582;11.484;2022-09-09T02:29:12;22.20;74.30
68766;DHT22;55756;45.582;11.484;2022-09-09T02:31:42;22.20;74.20
68766;DHT22;55756;45.582;11.484;2022-09-09T02:34:17;22.20;74.00
68766;DHT22;55756;45.582;11.484;2022-09-09T02:36:46;22.10;74.20
68766;DHT22;55756;45.582;11.484;2022-09-09T02:39:13;22.20;74.20
68766;DHT22;55756;45.582;11.484;2022-09-09T02:41:41;22.30;73.80
68766;DHT22;55756;45.582;11.484;2022-09-09T02:44:15;22.30;73.40
68766;DHT22;55756;45.582;11.484;2022-09-09T02:50:15;22.30;72.80
68766;DHT22;55756;45.582;11.484;2022-09-09T02:58:13;22.40;72.00
68766;DHT22;55756;45.582;11.484;2022-09-09T03:00:50;22.40;72.10
68766;DHT22;55756;45.582;11.484;2022-09-09T03:03:19;22.50;71.90
68766;DHT22;55756;45.582;11.484;2022-09-09T03:05:48;22.50;72.00
68766;DHT22;55756;45.582;11.484;2022-09-09T03:08:15;22.40;72.50
68766;DHT22;55756;45.582;11.484;2022-09-09T03:10:42;22.50;72.60
68766;DHT22;55756;45.582;11.484;2022-09-09T03:13:10;22.60;72.10
68766;DHT22;55756;45.582;11.484;2022-09-09T03:15:38;22.60;72.50
68766;DHT22;55756;45.582;11.484;2022-09-09T03:18:09;22.60;72.00
68766;DHT22;55756;45.582;11.484;2022-09-09T03:20:35;22.60;71.70
68766;DHT22;55756;45.582;11.484;2022-09-09T03:23:01;22.60;72.10
68766;DHT22;55756;45.582;11.484;2022-09-09T03:25:28;22.60;72.00
68766;DHT22;55756;45.582;11.484;2022-09-09T03:27:55;22.60;72.80
68766;DHT22;55756;45.582;11.484;2022-09-09T03:30:24;22.50;73.60
68766;DHT22;55756;45.582;11.484;2022-09-09T03:32:51;22.50;74.20
68766;DHT22;55756;45.582;11.484;2022-09-09T03:35:18;22.50;74.40
68766;DHT22;55756;45.582;11.484;2022-09-09T03:37:45;22.30;75.40
68766;DHT22;55756;45.582;11.484;2022-09-09T03:40:13;22.30;75.60
68766;DHT22;55756;45.582;11.484;2022-09-09T03:42:39;22.30;75.60
68766;DHT22;55756;45.582;11.484;2022-09-09T03:45:07;22.30;75.40
68766;DHT22;55756;45.582;11.484;2022-09-09T03:47:36;22.30;75.50
68766;DHT22;55756;45.582;11.484;2022-09-09T03:50:05;22.30;75.60
68766;DHT22;55756;45.582;11.484;2022-09-09T03:52:38;22.30;75.60
68766;DHT22;55756;45.582;11.484;2022-09-09T03:55:08;22.10;76.50
68766;DHT22;55756;45.582;11.484;2022-09-09T03:57:34;22.10;76.60
68766;DHT22;55756;45.582;11.484;2022-09-09T04:00:06;22.10;76.80
68766;DHT22;55756;45.582;11.484;2022-09-09T04:02:42;22.10;76.70
68766;DHT22;55756;45.582;11.484;2022-09-09T04:05:10;22.00;76.80
68766;DHT22;55756;45.582;11.484;2022-09-09T04:07:38;22.00;76.90
68766;DHT22;55756;45.582;11.484;2022-09-09T04:10:05;21.90;77.00
68766;DHT22;55756;45.582;11.484;2022-09-09T04:12:31;21.90;77.30
68766;DHT22;55756;45.582;11.484;2022-09-09T04:14:57;21.90;77.10
68766;DHT22;55756;45.582;11.484;2022-09-09T04:17:23;21.90;77.50
68766;DHT22;55756;45.582;11.484;2022-09-09T04:19:49;21.90;77.10
68766;DHT22;55756;45.582;11.484;2022-09-09T04:22:15;21.90;76.90
68766;DHT22;55756;45.582;11.484;2022-09-09T04:24:41;21.90;76.80
68766;DHT22;55756;45.582;11.484;2022-09-09T04:27:07;21.90;77.10
68766;DHT22;55756;45.582;11.484;2022-09-09T04:29:35;21.90;77.30
68766;DHT22;55756;45.582;11.484;2022-09-09T04:32:01;21.90;77.30
68766;DHT22;55756;45.582;11.484;2022-09-09T04:34:27;21.90;77.40
68766;DHT22;55756;45.582;11.484;2022-09-09T04:36:54;21.90;77.40
68766;DHT22;55756;45.582;11.484;2022-09-09T04:39:20;21.90;77.60
68766;DHT22;55756;45.582;11.484;2022-09-09T04:41:46;21.80;77.60
68766;DHT22;55756;45.582;11.484;2022-09-09T04:44:12;21.80;77.70
68766;DHT22;55756;45.582;11.484;2022-09-09T04:46:38;21.80;77.70
68766;DHT22;55756;45.582;11.484;2022-09-09T04:49:04;21.80;77.30
68766;DHT22;55756;45.582;11.484;2022-09-09T04:51:32;21.80;77.50
68766;DHT22;55756;45.582;11.484;2022-09-09T04:53:58;21.80;77.50
68766;DHT22;55756;45.582;11.484;2022-09-09T04:56:25;21.80;77.50
68766;DHT22;55756;45.582;11.484;2022-09-09T04:58:56;21.80;77.60
68766;DHT22;55756;45.582;11.484;2022-09-09T05:01:29;21.70;77.70
68766;DHT22;55756;45.582;11.484;2022-09-09T05:04:01;21.80;77.50
68766;DHT22;55756;45.582;11.484;2022-09-09T05:06:28;21.90;77.10
68766;DHT22;55756;45.582;11.484;2022-09-09T05:08:58;21.80;77.50
68766;DHT22;55756;45.582;11.484;2022-09-09T05:11:29;21.80;77.40
68766;DHT22;55756;45.582;11.484;2022-09-09T05:14:22;21.90;77.50
68766;DHT22;55756;45.582;11.484;2022-09-09T05:16:48;21.90;77.10
68766;DHT22;55756;45.582;11.484;2022-09-09T05:19:15;22.00;76.90
68766;DHT22;55756;45.582;11.484;2022-09-09T05:21:47;21.90;76.70
68766;DHT22;55756;45.582;11.484;2022-09-09T05:24:16;21.90;76.70
68766;DHT22;55756;45.582;11.484;2022-09-09T05:26:42;22.00;76.70
68766;DHT22;55756;45.582;11.484;2022-09-09T05:29:09;22.10;76.20
68766;DHT22;55756;45.582;11.484;2022-09-09T05:31:35;22.20;76.00
68766;DHT22;55756;45.582;11.484;2022-09-09T05:34:07;22.00;76.10
68766;DHT22;55756;45.582;11.484;2022-09-09T05:36:34;22.00;76.20
68766;DHT22;55756;45.582;11.484;2022-09-09T05:39:00;22.00;76.30
68766;DHT22;55756;45.582;11.484;2022-09-09T05:41:27;22.10;76.20
68766;DHT22;55756;45.582;11.484;2022-09-09T05:43:56;22.30;76.00
68766;DHT22;55756;45.582;11.484;2022-09-09T05:46:23;22.40;75.50
68766;DHT22;55756;45.582;11.484;2022-09-09T05:48:52;22.50;75.00
68766;DHT22;55756;45.582;11.484;2022-09-09T05:51:24;22.70;74.50
68766;DHT22;55756;45.582;11.484;2022-09-09T05:53:53;22.80;74.40
68766;DHT22;55756;45.582;11.484;2022-09-09T05:56:23;23.00;73.80
68766;DHT22;55756;45.582;11.484;2022-09-09T05:58:52;23.10;73.00
68766;DHT22;55756;45.582;11.484;2022-09-09T06:01:24;22.90;73.30
68766;DHT22;55756;45.582;11.484;2022-09-09T06:03:50;23.00;73.00
68766;DHT22;55756;45.582;11.484;2022-09-09T06:06:20;23.00;73.10
68766;DHT22;55756;45.582;11.484;2022-09-09T06:08:54;23.10;72.70
68766;DHT22;55756;45.582;11.484;2022-09-09T06:11:26;23.00;73.10
68766;DHT22;55756;45.582;11.484;2022-09-09T06:13:52;23.30;72.70
68766;DHT22;55756;45.582;11.484;2022-09-09T06:16:22;23.40;71.00
68766;DHT22;55756;45.582;11.484;2022-09-09T06:18:56;23.70;70.70
68766;DHT22;55756;45.582;11.484;2022-09-09T06:21:31;23.80;69.50
68766;DHT22;55756;45.582;11.484;2022-09-09T06:24:04;24.00;68.40
68766;DHT22;55756;45.582;11.484;2022-09-09T06:26:32;24.40;66.80
68766;DHT22;55756;45.582;11.484;2022-09-09T06:29:01;24.90;66.00
68766;DHT22;55756;45.582;11.484;2022-09-09T06:31:30;26.10;63.90
68766;DHT22;55756;45.582;11.484;2022-09-09T06:34:00;26.30;61.70
68766;DHT22;55756;45.582;11.484;2022-09-09T06:36:30;26.60;58.80
68766;DHT22;55756;45.582;11.484;2022-09-09T06:38:57;26.80;59.10
68766;DHT22;55756;45.582;11.484;2022-09-09T06:41:25;26.60;58.90
68766;DHT22;55756;45.582;11.484;2022-09-09T06:43:52;26.20;60.30
68766;DHT22;55756;45.582;11.484;2022-09-09T06:46:29;25.90;61.40
68766;DHT22;55756;45.582;11.484;2022-09-09T06:48:57;25.70;62.00
68766;DHT22;55756;45.582;11.484;2022-09-09T06:51:29;25.40;62.30
68766;DHT22;55756;45.582;11.484;2022-09-09T06:53:58;25.10;63.40
68766;DHT22;55756;45.582;11.484;2022-09-09T06:56:36;25.10;63.90
68766;DHT22;55756;45.582;11.484;2022-09-09T06:59:07;25.20;63.60
68766;DHT22;55756;45.582;11.484;2022-09-09T07:01:37;25.40;63.20
68766;DHT22;55756;45.582;11.484;2022-09-09T07:04:07;25.80;62.10
68766;DHT22;55756;45.582;11.484;2022-09-09T07:06:38;26.10;61.40
68766;DHT22;55756;45.582;11.484;2022-09-09T07:09:08;26.10;61.00
68766;DHT22;55756;45.582;11.484;2022-09-09T07:11:38;25.90;61.00
68766;DHT22;55756;45.582;11.484;2022-09-09T07:14:05;25.70;61.50
68766;DHT22;55756;45.582;11.484;2022-09-09T07:16:31;25.70;61.60
68766;DHT22;55756;45.582;11.484;2022-09-09T07:19:00;25.70;61.60
68766;DHT22;55756;45.582;11.484;2022-09-09T07:21:28;25.60;61.20
68766;DHT22;55756;45.582;11.484;2022-09-09T07:23:55;25.60;61.00
68766;DHT22;55756;45.582;11.484;2022-09-09T07:26:24;25.60;61.10
68766;DHT22;55756;45.582;11.484;2022-09-09T07:28:52;26.00;60.20
68766;DHT22;55756;45.582;11.484;2022-09-09T07:31:25;26.20;58.80
68766;DHT22;55756;45.582;11.484;2022-09-09T07:33:53;26.60;58.90
68766;DHT22;55756;45.582;11.484;2022-09-09T07:36:22;27.40;56.30
68766;DHT22;55756;45.582;11.484;2022-09-09T07:38:51;27.40;55.60
68766;DHT22;55756;45.582;11.484;2022-09-09T07:41:18;27.50;55.60
68766;DHT22;55756;45.582;11.484;2022-09-09T07:43:45;27.80;55.40
68766;DHT22;55756;45.582;11.484;2022-09-09T07:46:14;28.40;53.00
68766;DHT22;55756;45.582;11.484;2022-09-09T07:48:45;29.10;52.50
68766;DHT22;55756;45.582;11.484;2022-09-09T07:51:14;29.70;50.60
68766;DHT22;55756;45.582;11.484;2022-09-09T07:53:44;32.30;46.40
68766;DHT22;55756;45.582;11.484;2022-09-09T07:56:13;32.70;43.60
68766;DHT22;55756;45.582;11.484;2022-09-09T07:58:40;34.50;41.10
68766;DHT22;55756;45.582;11.484;2022-09-09T08:01:20;37.70;36.60
68766;DHT22;55756;45.582;11.484;2022-09-09T08:03:59;40.00;33.30
68766;DHT22;55756;45.582;11.484;2022-09-09T08:06:31;41.70;30.60
68766;DHT22;55756;45.582;11.484;2022-09-09T08:09:02;43.60;27.80
68766;DHT22;55756;45.582;11.484;2022-09-09T08:11:29;44.40;27.80
68766;DHT22;55756;45.582;11.484;2022-09-09T08:13:56;42.90;28.20
68766;DHT22;55756;45.582;11.484;2022-09-09T08:16:24;40.40;31.10
68766;DHT22;55756;45.582;11.484;2022-09-09T08:18:51;41.70;29.90
68766;DHT22;55756;45.582;11.484;2022-09-09T08:21:21;43.10;27.40
68766;DHT22;55756;45.582;11.484;2022-09-09T08:23:47;43.10;27.60
68766;DHT22;55756;45.582;11.484;2022-09-09T08:26:26;45.00;26.80
68766;DHT22;55756;45.582;11.484;2022-09-09T08:28:55;45.10;25.40
68766;DHT22;55756;45.582;11.484;2022-09-09T08:31:27;46.10;25.20
68766;DHT22;55756;45.582;11.484;2022-09-09T08:33:55;47.60;24.00
68766;DHT22;55756;45.582;11.484;2022-09-09T08:36:24;48.50;23.40
68766;DHT22;55756;45.582;11.484;2022-09-09T08:38:52;48.70;23.00
68766;DHT22;55756;45.582;11.484;2022-09-09T08:50:31;46.60;24.60
68766;DHT22;55756;45.582;11.484;2022-09-09T08:53:16;42.80;28.30
68766;DHT22;55756;45.582;11.484;2022-09-09T08:55:57;37.90;33.50
68766;DHT22;55756;45.582;11.484;2022-09-09T08:58:35;34.00;39.90
68766;DHT22;55756;45.582;11.484;2022-09-09T09:11:47;29.60;49.20
68766;DHT22;55756;45.582;11.484;2022-09-09T09:14:18;29.70;50.00
68766;DHT22;55756;45.582;11.484;2022-09-09T09:19:17;29.30;51.00
68766;DHT22;55756;45.582;11.484;2022-09-09T09:21:53;28.80;52.00
68766;DHT22;55756;45.582;11.484;2022-09-09T09:24:30;28.60;51.80
68766;DHT22;55756;45.582;11.484;2022-09-09T09:27:15;28.50;53.00
68766;DHT22;55756;45.582;11.484;2022-09-09T09:29:48;28.50;53.00
68766;DHT22;55756;45.582;11.484;2022-09-09T09:32:18;28.30;52.90
68766;DHT22;55756;45.582;11.484;2022-09-09T09:34:56;28.10;53.10
68766;DHT22;55756;45.582;11.484;2022-09-09T09:37:31;27.80;54.50
68766;DHT22;55756;45.582;11.484;2022-09-09T09:40:19;27.80;54.50
68766;DHT22;55756;45.582;11.484;2022-09-09T09:42:59;28.10;53.60
68766;DHT22;55756;45.582;11.484;2022-09-09T09:45:35;28.20;52.90
68766;DHT22;55756;45.582;11.484;2022-09-09T09:48:12;28.20;53.10
68766;DHT22;55756;45.582;11.484;2022-09-09T09:53:26;28.30;53.70
68766;DHT22;55756;45.582;11.484;2022-09-09T09:56:03;27.80;54.70
68766;DHT22;55756;45.582;11.484;2022-09-09T09:58:32;27.60;55.40
68766;DHT22;55756;45.582;11.484;2022-09-09T10:01:01;27.30;56.40
68766;DHT22;55756;45.582;11.484;2022-09-09T10:03:29;27.40;56.60
68766;DHT22;55756;45.582;11.484;2022-09-09T10:05:57;27.70;55.90
68766;DHT22;55756;45.582;11.484;2022-09-09T10:08:25;27.70;55.70
68766;DHT22;55756;45.582;11.484;2022-09-09T10:11:26;27.60;55.60
68766;DHT22;55756;45.582;11.484;2022-09-09T10:14:21;27.80;55.20
68766;DHT22;55756;45.582;11.484;2022-09-09T10:19:33;27.80;56.20
68766;DHT22;55756;45.582;11.484;2022-09-09T10:22:27;27.70;56.80
68766;DHT22;55756;45.582;11.484;2022-09-09T10:33:41;28.30;54.20
68766;DHT22;55756;45.582;11.484;2022-09-09T10:36:21;28.10;55.10
68766;DHT22;55756;45.582;11.484;2022-09-09T10:39:01;28.10;55.60
68766;DHT22;55756;45.582;11.484;2022-09-09T10:42:06;28.20;55.20
68766;DHT22;55756;45.582;11.484;2022-09-09T10:50:29;28.10;54.80
68766;DHT22;55756;45.582;11.484;2022-09-09T10:52:59;28.20;55.20
68766;DHT22;55756;45.582;11.484;2022-09-09T10:55:35;28.30;55.10
68766;DHT22;55756;45.582;11.484;2022-09-09T10:58:03;28.40;54.40
68766;DHT22;55756;45.582;11.484;2022-09-09T11:00:41;28.40;53.40
68766;DHT22;55756;45.582;11.484;2022-09-09T11:03:27;28.70;53.10
68766;DHT22;55756;45.582;11.484;2022-09-09T11:06:05;28.80;53.20
68766;DHT22;55756;45.582;11.484;2022-09-09T11:08:35;28.60;53.60
68766;DHT22;55756;45.582;11.484;2022-09-09T11:16:36;28.70;52.90
68766;DHT22;55756;45.582;11.484;2022-09-09T11:19:36;28.30;53.50
68766;DHT22;55756;45.582;11.484;2022-09-09T11:27:36;28.90;53.40
68766;DHT22;55756;45.582;11.484;2022-09-09T11:30:18;29.10;53.30
68766;DHT22;55756;45.582;11.484;2022-09-09T11:38:26;29.40;52.50
68766;DHT22;55756;45.582;11.484;2022-09-09T11:41:01;29.50;52.70
68766;DHT22;55756;45.582;11.484;2022-09-09T11:46:15;28.90;50.90
68766;DHT22;55756;45.582;11.484;2022-09-09T11:48:44;28.30;50.00
68766;DHT22;55756;45.582;11.484;2022-09-09T11:51:27;27.50;52.20
68766;DHT22;55756;45.582;11.484;2022-09-09T11:54:02;26.70;57.30
68766;DHT22;55756;45.582;11.484;2022-09-09T11:56:31;26.20;59.60
68766;DHT22;55756;45.582;11.484;2022-09-09T11:59:17;26.10;60.10
68766;DHT22;55756;45.582;11.484;2022-09-09T12:01:44;26.20;59.60
68766;DHT22;55756;45.582;11.484;2022-09-09T12:06:55;26.00;62.30
68766;DHT22;55756;45.582;11.484;2022-09-09T12:09:51;25.40;62.70
68766;DHT22;55756;45.582;11.484;2022-09-09T12:12:31;25.20;61.70
68766;DHT22;55756;45.582;11.484;2022-09-09T12:17:44;24.50;63.80
68766;DHT22;55756;45.582;11.484;2022-09-09T12:20:50;24.20;64.90
68766;DHT22;55756;45.582;11.484;2022-09-09T12:23:48;23.50;64.70
68766;DHT22;55756;45.582;11.484;2022-09-09T12:36:57;24.20;66.30
68766;DHT22;55756;45.582;11.484;2022-09-09T12:39:52;24.70;66.10
68766;DHT22;55756;45.582;11.484;2022-09-09T12:42:21;24.70;65.30
68766;DHT22;55756;45.582;11.484;2022-09-09T12:45:01;24.30;65.60
68766;DHT22;55756;45.582;11.484;2022-09-09T12:47:41;24.10;66.70
68766;DHT22;55756;45.582;11.484;2022-09-09T12:50:52;24.30;66.90
68766;DHT22;55756;45.582;11.484;2022-09-09T12:53:38;24.30;66.50
68766;DHT22;55756;45.582;11.484;2022-09-09T12:56:07;24.10;65.90
68766;DHT22;55756;45.582;11.484;2022-09-09T12:58:36;24.40;65.90
68766;DHT22;55756;45.582;11.484;2022-09-09T13:01:05;24.70;66.00
68766;DHT22;55756;45.582;11.484;2022-09-09T13:03:32;24.90;65.80
68766;DHT22;55756;45.582;11.484;2022-09-09T13:06:10;25.00;66.40
68766;DHT22;55756;45.582;11.484;2022-09-09T13:08:37;25.10;66.10
68766;DHT22;55756;45.582;11.484;2022-09-09T13:11:09;25.30;65.20
68766;DHT22;55756;45.582;11.484;2022-09-09T13:13:41;25.00;64.00
68766;DHT22;55756;45.582;11.484;2022-09-09T13:16:25;25.10;64.70
68766;DHT22;55756;45.582;11.484;2022-09-09T13:18:52;25.00;61.70
68766;DHT22;55756;45.582;11.484;2022-09-09T13:21:18;25.30;62.20
68766;DHT22;55756;45.582;11.484;2022-09-09T13:23:49;25.30;61.00
68766;DHT22;55756;45.582;11.484;2022-09-09T13:26:24;25.50;60.80
68766;DHT22;55756;45.582;11.484;2022-09-09T13:28:53;26.00;61.80
68766;DHT22;55756;45.582;11.484;2022-09-09T13:31:29;26.20;60.50
68766;DHT22;55756;45.582;11.484;2022-09-09T13:33:55;26.20;59.60
68766;DHT22;55756;45.582;11.484;2022-09-09T13:36:29;26.10;59.80
68766;DHT22;55756;45.582;11.484;2022-09-09T13:38:57;26.10;60.00
68766;DHT22;55756;45.582;11.484;2022-09-09T13:41:44;26.30;59.30
68766;DHT22;55756;45.582;11.484;2022-09-09T13:44:34;26.40;59.00
68766;DHT22;55756;45.582;11.484;2022-09-09T13:47:17;26.60;58.60
68766;DHT22;55756;45.582;11.484;2022-09-09T13:49:44;26.90;58.40
68766;DHT22;55756;45.582;11.484;2022-09-09T13:52:18;27.00;58.20
68766;DHT22;55756;45.582;11.484;2022-09-09T13:54:51;27.00;56.90
68766;DHT22;55756;45.582;11.484;2022-09-09T13:57:22;26.50;57.00
68766;DHT22;55756;45.582;11.484;2022-09-09T13:59:48;26.50;57.50
68766;DHT22;55756;45.582;11.484;2022-09-09T14:02:18;26.30;58.10
68766;DHT22;55756;45.582;11.484;2022-09-09T14:04:44;25.70;57.90
68766;DHT22;55756;45.582;11.484;2022-09-09T14:07:18;25.20;60.00
68766;DHT22;55756;45.582;11.484;2022-09-09T14:09:44;25.10;60.90
68766;DHT22;55756;45.582;11.484;2022-09-09T14:12:11;25.20;60.30
68766;DHT22;55756;45.582;11.484;2022-09-09T14:14:37;25.10;60.60
68766;DHT22;55756;45.582;11.484;2022-09-09T14:17:03;25.10;61.40
68766;DHT22;55756;45.582;11.484;2022-09-09T14:19:30;24.90;62.40
68766;DHT22;55756;45.582;11.484;2022-09-09T14:21:57;24.70;62.10
68766;DHT22;55756;45.582;11.484;2022-09-09T14:24:23;24.80;61.30
68766;DHT22;55756;45.582;11.484;2022-09-09T14:26:49;24.70;61.90
68766;DHT22;55756;45.582;11.484;2022-09-09T14:29:15;24.60;62.40
68766;DHT22;55756;45.582;11.484;2022-09-09T14:31:40;24.80;61.30
68766;DHT22;55756;45.582;11.484;2022-09-09T14:34:06;24.80;60.30
68766;DHT22;55756;45.582;11.484;2022-09-09T14:36:33;25.00;60.30
68766;DHT22;55756;45.582;11.484;2022-09-09T14:38:59;25.20;60.10
68766;DHT22;55756;45.582;11.484;2022-09-09T14:41:24;25.20;61.20
68766;DHT22;55756;45.582;11.484;2022-09-09T14:43:50;25.40;60.50
68766;DHT22;55756;45.582;11.484;2022-09-09T14:46:18;25.60;59.90
68766;DHT22;55756;45.582;11.484;2022-09-09T14:48:44;25.80;59.90
68766;DHT22;55756;45.582;11.484;2022-09-09T14:51:13;25.80;58.00
68766;DHT22;55756;45.582;11.484;2022-09-09T14:53:39;25.60;57.70
68766;DHT22;55756;45.582;11.484;2022-09-09T14:58:32;25.50;56.70
68766;DHT22;55756;45.582;11.484;2022-09-09T15:01:09;25.50;57.30
68766;DHT22;55756;45.582;11.484;2022-09-09T15:03:41;25.60;57.00
68766;DHT22;55756;45.582;11.484;2022-09-09T15:06:08;25.30;56.80
68766;DHT22;55756;45.582;11.484;2022-09-09T15:08:36;25.10;58.40
68766;DHT22;55756;45.582;11.484;2022-09-09T15:11:03;24.90;58.10
68766;DHT22;55756;45.582;11.484;2022-09-09T15:13:29;24.80;58.20
68766;DHT22;55756;45.582;11.484;2022-09-09T15:15:55;24.60;58.90
68766;DHT22;55756;45.582;11.484;2022-09-09T15:18:21;24.60;60.00
68766;DHT22;55756;45.582;11.484;2022-09-09T15:20:47;24.50;59.40
68766;DHT22;55756;45.582;11.484;2022-09-09T15:23:13;24.60;59.40
68766;DHT22;55756;45.582;11.484;2022-09-09T15:25:55;24.70;59.00
68766;DHT22;55756;45.582;11.484;2022-09-09T15:28:22;24.80;59.30
68766;DHT22;55756;45.582;11.484;2022-09-09T15:30:52;24.70;59.60
68766;DHT22;55756;45.582;11.484;2022-09-09T15:33:20;24.80;59.30
68766;DHT22;55756;45.582;11.484;2022-09-09T15:35:46;24.90;58.90
68766;DHT22;55756;45.582;11.484;2022-09-09T15:38:13;24.90;58.20
68766;DHT22;55756;45.582;11.484;2022-09-09T15:40:39;24.70;58.70
68766;DHT22;55756;45.582;11.484;2022-09-09T15:43:06;24.80;59.20
68766;DHT22;55756;45.582;11.484;2022-09-09T15:45:33;24.90;59.60
68766;DHT22;55756;45.582;11.484;2022-09-09T15:48:00;25.00;59.10
68766;DHT22;55756;45.582;11.484;2022-09-09T15:50:27;25.20;58.90
68766;DHT22;55756;45.582;11.484;2022-09-09T15:52:55;25.10;59.20
68766;DHT22;55756;45.582;11.484;2022-09-09T15:55:21;25.00;58.90
68766;DHT22;55756;45.582;11.484;2022-09-09T15:57:47;24.90;60.10
68766;DHT22;55756;45.582;11.484;2022-09-09T16:00:13;25.00;60.20
68766;DHT22;55756;45.582;11.484;2022-09-09T16:02:39;25.10;59.30
68766;DHT22;55756;45.582;11.484;2022-09-09T16:05:05;25.00;59.80
68766;DHT22;55756;45.582;11.484;2022-09-09T16:07:31;24.90;59.50
68766;DHT22;55756;45.582;11.484;2022-09-09T16:09:57;24.80;60.30
68766;DHT22;55756;45.582;11.484;2022-09-09T16:12:23;24.70;60.80
68766;DHT22;55756;45.582;11.484;2022-09-09T16:14:49;24.70;61.40
68766;DHT22;55756;45.582;11.484;2022-09-09T16:17:15;24.70;61.60
68766;DHT22;55756;45.582;11.484;2022-09-09T16:19:41;24.60;61.70
68766;DHT22;55756;45.582;11.484;2022-09-09T16:22:06;24.50;62.40
68766;DHT22;55756;45.582;11.484;2022-09-09T16:24:33;24.60;61.90
68766;DHT22;55756;45.582;11.484;2022-09-09T16:26:59;24.70;61.80
68766;DHT22;55756;45.582;11.484;2022-09-09T16:29:25;24.70;61.90
68766;DHT22;55756;45.582;11.484;2022-09-09T16:31:53;24.80;61.80
68766;DHT22;55756;45.582;11.484;2022-09-09T16:34:19;24.90;61.70
68766;DHT22;55756;45.582;11.484;2022-09-09T16:36:46;25.00;62.00
68766;DHT22;55756;45.582;11.484;2022-09-09T16:39:18;24.90;61.90
68766;DHT22;55756;45.582;11.484;2022-09-09T16:41:45;25.00;61.60
68766;DHT22;55756;45.582;11.484;2022-09-09T16:44:13;25.10;61.40
68766;DHT22;55756;45.582;11.484;2022-09-09T16:46:41;25.10;61.50
68766;DHT22;55756;45.582;11.484;2022-09-09T16:49:09;25.10;61.80
68766;DHT22;55756;45.582;11.484;2022-09-09T16:51:37;25.10;62.10
68766;DHT22;55756;45.582;11.484;2022-09-09T16:54:04;25.10;61.80
68766;DHT22;55756;45.582;11.484;2022-09-09T16:56:33;25.10;61.90
68766;DHT22;55756;45.582;11.484;2022-09-09T16:59:05;25.10;62.70
68766;DHT22;55756;45.582;11.484;2022-09-09T17:01:33;25.10;63.50
68766;DHT22;55756;45.582;11.484;2022-09-09T17:04:02;25.10;64.50
68766;DHT22;55756;45.582;11.484;2022-09-09T17:06:29;24.90;65.50
68766;DHT22;55756;45.582;11.484;2022-09-09T17:09:03;24.90;65.90
68766;DHT22;55756;45.582;11.484;2022-09-09T17:11:29;24.80;66.20
68766;DHT22;55756;45.582;11.484;2022-09-09T17:13:56;24.70;66.30
68766;DHT22;55756;45.582;11.484;2022-09-09T17:16:25;24.50;66.80
68766;DHT22;55756;45.582;11.484;2022-09-09T17:18:53;24.50;66.80
68766;DHT22;55756;45.582;11.484;2022-09-09T17:21:23;24.50;67.20
68766;DHT22;55756;45.582;11.484;2022-09-09T17:23:49;24.50;67.30
68766;DHT22;55756;45.582;11.484;2022-09-09T17:26:18;24.40;67.50
68766;DHT22;55756;45.582;11.484;2022-09-09T17:28:45;24.40;67.30
68766;DHT22;55756;45.582;11.484;2022-09-09T17:31:13;24.40;67.30
68766;DHT22;55756;45.582;11.484;2022-09-09T17:33:42;24.30;67.60
68766;DHT22;55756;45.582;11.484;2022-09-09T17:38:37;24.00;68.30
68766;DHT22;55756;45.582;11.484;2022-09-09T17:43:37;24.00;68.60
68766;DHT22;55756;45.582;11.484;2022-09-09T17:48:40;23.80;68.40
68766;DHT22;55756;45.582;11.484;2022-09-09T17:51:09;23.80;68.90
68766;DHT22;55756;45.582;11.484;2022-09-09T17:53:39;23.80;69.10
68766;DHT22;55756;45.582;11.484;2022-09-09T17:56:06;23.70;69.40
68766;DHT22;55756;45.582;11.484;2022-09-09T17:58:34;23.70;69.40
68766;DHT22;55756;45.582;11.484;2022-09-09T18:01:28;23.60;69.20
68766;DHT22;55756;45.582;11.484;2022-09-09T18:03:56;23.60;69.20
68766;DHT22;55756;45.582;11.484;2022-09-09T18:06:29;23.40;69.70
68766;DHT22;55756;45.582;11.484;2022-09-09T18:08:58;23.30;70.30